Snelling, California
Current Conditions -  °F | °C
As of 8:45 AM on Saturday 22 Nov 2014 (Local Time) from KMER Reporting Station
Haze Haze  
Wind Chill: 54°   Ceiling: 3400
Heat Index: 54°   Visibility: 3mi
Dew Point: 54°   Wind: 14mph
Humidity: 100%   Direction: 160°SSE
Pressure: 30.16"   Gusts: NA
Location:  37.52°N, 120.44°W
Report Text: KMER 221645Z 16012KT 3SM HZ OVC034 12/12 A3016
Loading
Personal Weather Stations






























Interactive Weather Map New forecast layout! Learn more

10-Day Weather Forecast

Advertisements
Track Severe Weather on mobile